Time;durP1;ratioP1;P1;durP2;ratioP2;P2;SDS_P1;SDS_P2;PMS_P1;PMS_P2;Temp;Humidity;BMP_temperature;BMP_pressure;BME280_temperature;BME280_humidity;BME280_pressure;Samples;Min_cycle;Max_cycle;Signal;HPM_P1;HPM_P2
2022/11/08 00:01:51;;;;;;;16.23;6.37;;;;;;;7.82;76.76;101476.53;6353142;22;20294;-95
2022/11/08 00:04:35;;;;;;;14.50;7.30;;;;;;;7.99;76.75;101495.75;6329873;22;20090;-96
2022/11/08 00:16:26;;;;;;;14.85;6.70;;;;;;;7.95;76.55;101495.13;6332296;22;20025;-96
2022/11/08 00:19:14;;;;;;;12.38;6.25;;;;;;;7.57;76.91;101458.91;6357289;22;20094;-94
2022/11/08 00:22:07;;;;;;;12.07;6.35;;;;;;;7.56;77.32;101457.22;6329319;22;20385;-94
2022/11/08 00:25:26;;;;;;;13.88;6.03;;;;;;;7.86;76.77;101503.06;6245643;22;20027;-95
2022/11/08 00:54:07;;;;;;;11.75;6.30;;;;;;;7.32;78.08;101449.28;6362893;22;20011;-95
2022/11/08 00:56:43;;;;;;;10.93;6.22;;;;;;;7.56;77.98;101472.41;6351410;22;20015;-92
2022/11/08 00:59:57;;;;;;;16.17;5.97;;;;;;;7.57;77.48;101463.41;6325608;22;20050;-94
2022/11/08 01:02:43;;;;;;;12.00;6.15;;;;;;;7.50;77.71;101462.19;6341603;22;20006;-94
2022/11/08 01:05:24;;;;;;;11.20;6.00;;;;;;;7.30;78.01;101435.19;6321933;22;20347;-93
2022/11/08 01:08:14;;;;;;;15.18;6.45;;;;;;;7.43;78.07;101450.28;6286715;22;20014;-92
2022/11/08 01:10:54;;;;;;;11.02;5.93;;;;;;;7.59;77.66;101467.66;6327967;22;20067;-93
2022/11/08 01:13:51;;;;;;;11.00;5.90;;;;;;;7.65;77.62;101482.38;6357895;22;20002;-94
2022/11/08 01:16:48;;;;;;;15.15;6.63;;;;;;;7.65;77.52;101484.22;6263680;22;20015;-93
2022/11/08 01:19:28;;;;;;;15.05;7.13;;;;;;;7.36;77.79;101455.25;6327841;22;20007;-93
2022/11/08 01:22:11;;;;;;;16.27;7.05;;;;;;;7.47;77.53;101473.13;6338817;22;20003;-92
2022/11/08 01:24:48;;;;;;;13.30;7.47;;;;;;;7.50;77.69;101472.91;6341896;22;20002;-93
2022/11/08 01:27:17;;;;;;;16.55;7.15;;;;;;;7.42;77.13;101446.72;6269648;22;20080;-91
2022/11/08 01:29:45;;;;;;;13.77;7.25;;;;;;;7.39;76.87;101438.97;6264841;22;20006;-92
2022/11/08 01:32:33;;;;;;;14.63;7.55;;;;;;;7.45;77.45;101456.38;6290646;22;20006;-93
2022/11/08 01:35:04;;;;;;;13.93;7.50;;;;;;;7.33;77.50;101451.00;6342763;22;20010;-95
2022/11/08 01:37:59;;;;;;;16.92;7.63;;;;;;;7.36;77.62;101450.75;6321617;22;20007;-94
2022/11/08 01:40:31;;;;;;;16.58;8.02;;;;;;;7.26;77.99;101457.81;6324137;22;20010;-93
2022/11/08 01:43:32;;;;;;;15.32;8.07;;;;;;;7.45;77.92;101483.97;6331477;22;20022;-95
2022/11/08 01:46:29;;;;;;;21.92;10.80;;;;;;;7.36;78.15;101485.53;6359312;22;20017;-92
2022/11/08 01:49:26;;;;;;;26.15;13.70;;;;;;;7.22;78.75;101479.56;6303535;22;20026;-91
2022/11/08 01:51:58;;;;;;;34.17;18.13;;;;;;;7.11;79.17;101488.41;6347286;22;20026;-93
2022/11/08 01:54:37;;;;;;;37.70;19.55;;;;;;;6.92;79.00;101433.66;6350219;22;20096;-92
2022/11/08 01:57:37;;;;;;;41.90;18.00;;;;;;;6.98;78.75;101440.38;6317840;22;20033;-94
2022/11/08 02:00:28;;;;;;;33.08;17.80;;;;;;;7.07;78.92;101477.13;6346730;22;20010;-93
2022/11/08 02:03:19;;;;;;;;;;;;;;;;;;;;;
2022/11/08 02:05:57;;;;;;;30.50;16.02;;;;;;;7.18;78.69;101479.78;6347818;22;20075;-93
2022/11/08 02:08:56;;;;;;;30.95;16.10;;;;;;;7.03;78.54;101445.38;6253327;23;20008;-94
2022/11/08 02:12:05;;;;;;;33.13;15.50;;;;;;;7.21;78.78;101484.06;6225235;23;20483;-94
2022/11/08 02:18:05;;;;;;;28.67;15.05;;;;;;;6.97;79.05;101452.88;6253787;23;20034;-92
2022/11/08 02:20:53;;;;;;;26.52;15.20;;;;;;;7.04;79.22;101481.81;6247028;23;20078;-93
2022/11/08 02:23:29;;;;;;;33.10;14.38;;;;;;;7.09;79.12;101485.84;6218502;23;20012;-94
2022/11/08 02:25:56;;;;;;;26.55;13.85;;;;;;;6.70;80.02;101442.50;6197451;23;20012;-92
2022/11/08 02:28:36;;;;;;;27.75;13.52;;;;;;;6.86;79.63;101458.22;6195150;23;20019;-93
2022/11/08 02:31:10;;;;;;;24.70;13.82;;;;;;;6.93;79.67;101469.28;6252824;23;20012;-93
2022/11/08 02:33:57;;;;;;;27.80;12.82;;;;;;;6.76;80.15;101451.84;6324945;22;20462;-96
2022/11/08 02:36:33;;;;;;;32.97;13.38;;;;;;;6.71;79.90;101446.00;6314000;22;20009;-94
2022/11/08 02:39:07;;;;;;;29.05;13.07;;;;;;;6.79;79.98;101459.66;6290373;22;20041;-93
2022/11/08 02:42:06;;;;;;;25.60;12.15;;;;;;;6.76;79.97;101457.19;6285875;22;20002;-95
2022/11/08 02:44:40;;;;;;;33.50;13.60;;;;;;;6.86;79.83;101471.59;6344338;22;20321;-94
2022/11/08 02:47:15;;;;;;;22.50;12.65;;;;;;;6.79;80.61;101499.75;6350500;22;19999;-92
2022/11/08 02:50:18;;;;;;;24.00;13.15;;;;;;;6.69;80.88;101477.34;6293474;22;20011;-94
2022/11/08 02:56:32;;;;;;;24.30;11.65;;;;;;;6.76;80.10;101470.56;6363005;22;20052;-95
2022/11/08 02:59:27;;;;;;;30.75;12.93;;;;;;;6.69;80.11;101445.28;6336913;22;20081;-94
2022/11/08 03:02:00;;;;;;;26.80;11.35;;;;;;;6.75;80.01;101472.38;6335063;22;20071;-93
2022/11/08 03:04:32;;;;;;;23.83;12.30;;;;;;;6.50;80.32;101430.63;6335404;22;20011;-94
2022/11/08 03:07:21;;;;;;;32.45;11.77;;;;;;;6.66;79.91;101434.81;6328706;22;20023;-96
2022/11/08 03:09:57;;;;;;;21.63;11.95;;;;;;;7.01;79.59;101488.25;6299121;22;20064;-93
2022/11/08 03:12:23;;;;;;;27.42;13.25;;;;;;;6.96;80.13;101485.09;6298208;22;19999;-94
2022/11/08 03:14:49;;;;;;;28.27;11.65;;;;;;;6.71;80.07;101459.38;6262814;22;20006;-92
2022/11/08 03:17:36;;;;;;;24.00;11.82;;;;;;;6.75;80.00;101455.50;6320610;22;20003;-94
2022/11/08 03:20:29;;;;;;;24.83;11.55;;;;;;;6.90;80.14;101499.75;6293216;22;20045;-93
2022/11/08 03:23:09;;;;;;;26.13;12.10;;;;;;;6.84;79.84;101486.88;6350414;22;20368;-93
2022/11/08 03:25:49;;;;;;;25.83;12.90;;;;;;;6.86;80.14;101492.09;6292594;22;20026;-93
2022/11/08 03:28:29;;;;;;;25.13;13.10;;;;;;;6.61;80.40;101463.72;6311182;22;20438;-93
2022/11/08 03:31:00;;;;;;;25.50;12.85;;;;;;;6.71;80.71;101483.44;6314856;22;20076;-93
2022/11/08 03:33:34;;;;;;;22.60;11.93;;;;;;;6.57;80.61;101472.94;6317429;22;20015;-92
2022/11/08 03:36:04;;;;;;;23.35;11.93;;;;;;;6.65;80.10;101467.84;6342964;22;20002;-91
2022/11/08 03:38:32;;;;;;;25.52;11.82;;;;;;;6.71;79.85;101475.41;6286365;22;20010;-93
2022/11/08 03:41:00;;;;;;;24.52;11.77;;;;;;;6.84;80.17;101507.44;6286577;22;20094;-92
2022/11/08 03:43:33;;;;;;;21.88;11.27;;;;;;;6.39;80.80;101438.63;6314895;22;20390;-92
2022/11/08 03:49:26;;;;;;;23.95;10.93;;;;;;;6.50;81.05;101473.38;6351583;22;20059;-93
2022/11/08 05:02:02;;;;;;;47.72;24.27;;;;;;;6.93;80.74;101518.28;6332732;22;20086;-95
2022/11/08 05:04:32;;;;;;;49.90;24.17;;;;;;;6.92;80.73;101508.53;6283726;22;20033;-92
2022/11/08 05:07:00;;;;;;;54.30;26.73;;;;;;;6.97;80.48;101509.03;6340783;22;20018;-90
2022/11/08 05:09:27;;;;;;;58.85;27.80;;;;;;;7.03;80.42;101518.41;6292832;22;20007;-89
2022/11/08 05:11:54;;;;;;;53.28;26.95;;;;;;;6.92;79.87;101488.97;6310509;22;20013;-90
2022/11/08 05:14:22;;;;;;;45.83;25.60;;;;;;;7.15;79.75;101521.97;6306801;22;20435;-90
2022/11/08 05:16:52;;;;;;;48.20;24.08;;;;;;;7.17;79.51;101509.34;6313420;22;20007;-89
2022/11/08 05:23:22;;;;;;;50.22;22.55;;;;;;;6.90;79.05;101469.50;6309896;22;20458;-91
2022/11/08 05:24:51;;;;;;;42.90;20.92;;;;;;;7.07;79.09;101503.84;6311828;22;20017;-89
2022/11/08 05:27:18;;;;;;;;;;;;;;;7.30;79.00;101531.47;6283214;22;20010;-89
2022/11/08 05:29:45;;;;;;;41.20;19.63;;;;;;;7.02;78.68;101478.41;6307145;22;19913;-90
2022/11/08 05:32:12;;;;;;;52.05;20.17;;;;;;;7.49;78.41;101538.06;6282427;22;20085;-91
2022/11/08 05:34:41;;;;;;;39.85;19.85;;;;;;;7.61;77.10;101507.69;6283490;22;20571;-91
2022/11/08 05:37:10;;;;;;;38.88;20.13;;;;;;;7.71;76.71;101510.50;6283015;22;20007;-89
2022/11/08 05:39:37;;;;;;;38.70;21.13;;;;;;;7.76;76.45;101505.63;6288622;22;20006;-88
2022/11/08 05:42:05;;;;;;;41.83;22.70;;;;;;;7.81;76.53;101504.28;6292813;22;20002;-88
2022/11/08 05:44:31;;;;;;;38.50;21.25;;;;;;;8.08;76.05;101520.91;6300757;22;20023;-89
2022/11/08 05:46:57;;;;;;;;;;;;;;;8.23;75.96;101547.31;6302305;22;20018;-89
2022/11/08 05:49:26;;;;;;;36.95;21.08;;;;;;;8.20;75.16;101519.94;6323342;22;19907;-90
2022/11/08 05:51:53;;;;;;;41.17;22.45;;;;;;;8.33;75.05;101533.19;6343161;22;20023;-91
2022/11/08 05:54:23;;;;;;;42.88;24.15;;;;;;;8.29;74.50;101492.41;6286403;22;20007;-90
2022/11/08 05:56:52;;;;;;;40.30;23.10;;;;;;;8.56;73.89;101516.09;6336099;22;20108;-90
2022/11/08 05:59:19;;;;;;;42.30;23.75;;;;;;;8.81;73.38;101538.19;6313998;22;20006;-91
2022/11/08 06:01:52;;;;;;;46.05;23.42;;;;;;;8.85;73.13;101520.88;6284898;22;20006;-91
2022/11/08 06:04:23;;;;;;;42.38;25.05;;;;;;;8.99;72.63;101528.63;6285266;22;20075;-89
2022/11/08 06:06:51;;;;;;;44.13;24.75;;;;;;;8.90;72.00;101483.81;6256110;22;20006;-90
2022/11/08 06:09:19;;;;;;;49.90;26.95;;;;;;;9.11;71.39;101507.94;6306779;22;20010;-90
2022/11/08 06:11:51;;;;;;;40.00;24.85;;;;;;;9.16;70.85;101491.47;6281438;22;20387;-90
2022/11/08 06:14:17;;;;;;;45.22;25.30;;;;;;;9.57;70.23;101538.03;6284144;22;20041;-90
2022/11/08 06:16:44;;;;;;;44.17;26.00;;;;;;;10.02;69.23;101569.88;6308157;22;20007;-93
2022/11/08 06:19:11;;;;;;;38.85;22.65;;;;;;;9.87;68.43;101532.66;6288882;22;20374;-91
2022/11/08 06:21:38;;;;;;;36.78;20.30;;;;;;;9.77;67.88;101533.59;6310949;22;20045;-89
2022/11/08 06:24:07;;;;;;;32.42;19.30;;;;;;;9.68;68.83;101540.63;6284452;22;20010;-85
2022/11/08 06:26:50;;;;;;;26.42;15.50;;;;;;;9.55;68.98;101545.34;6306221;22;20422;-87
2022/11/08 06:29:26;;;;;;;31.48;17.10;;;;;;;10.35;66.78;101532.00;6308582;22;20006;-86
2022/11/08 06:31:54;;;;;;;35.50;16.65;;;;;;;11.17;63.88;101583.75;6259804;22;20454;-89
2022/11/08 06:34:23;;;;;;;32.55;17.08;;;;;;;11.70;61.37;101561.66;6345251;22;20003;-93
2022/11/08 06:37:01;;;;;;;40.55;18.92;;;;;;;12.38;59.85;101574.88;6345371;22;20013;-92
2022/11/08 06:39:50;;;;;;;33.63;19.20;;;;;;;12.93;57.62;101548.84;6340319;22;20026;-92
2022/11/08 06:42:16;;;;;;;35.67;18.95;;;;;;;13.67;55.30;101572.75;6324615;22;20003;-93
2022/11/08 06:45:08;;;;;;;36.22;19.50;;;;;;;14.05;54.66;101567.88;6326280;22;20003;-89
2022/11/08 07:01:15;;;;;;;27.63;15.75;;;;;;;18.33;43.53;101556.06;6359046;22;20106;-90
2022/11/08 07:03:43;;;;;;;31.50;15.13;;;;;;;18.65;41.86;101531.28;6308585;22;20018;-91
2022/11/08 07:06:11;;;;;;;23.75;14.43;;;;;;;19.12;40.76;101555.25;6284494;22;20006;-91
2022/11/08 07:08:40;;;;;;;24.95;14.00;;;;;;;19.76;39.93;101543.41;6282308;22;20014;-91
2022/11/08 07:18:12;;;;;;;35.13;16.50;;;;;;;22.10;35.28;101563.78;6340531;22;20015;-89
2022/11/08 07:24:02;;;;;;;32.28;16.90;;;;;;;23.03;33.34;101557.06;6339353;22;20068;-94
2022/11/08 07:26:55;;;;;;;31.13;17.27;;;;;;;23.44;32.84;101559.28;6314025;22;20009;-90
2022/11/08 07:30:04;;;;;;;38.22;19.20;;;;;;;23.77;32.38;101558.16;6315281;22;20032;-89
2022/11/08 07:32:31;;;;;;;32.03;19.40;;;;;;;24.38;31.02;101548.16;6344376;22;20006;-88
2022/11/08 07:35:07;;;;;;;29.70;17.42;;;;;;;24.77;30.67;101554.16;6287442;22;20010;-90
2022/11/08 07:37:35;;;;;;;31.10;17.83;;;;;;;24.85;30.02;101540.09;6327397;22;20071;-89
2022/11/08 07:40:01;;;;;;;34.05;18.60;;;;;;;24.53;30.56;101551.34;6340770;22;20443;-90
2022/11/08 07:43:03;;;;;;;27.65;17.23;;;;;;;24.73;29.89;101572.22;6352650;22;20052;-89
2022/11/08 07:49:36;;;;;;;25.95;15.55;;;;;;;24.55;30.53;101576.69;6343741;22;20442;-91
2022/11/08 08:06:07;;;;;;;32.65;17.80;;;;;;;23.76;31.64;101576.53;6308315;22;20142;-90
2022/11/08 08:08:50;;;;;;;37.78;19.92;;;;;;;22.93;32.85;101579.47;6322074;22;20014;-90
2022/11/08 08:15:06;;;;;;;24.67;15.05;;;;;;;24.03;31.28;101589.97;6308026;22;20409;-90
2022/11/08 08:24:22;;;;;;;24.33;13.27;;;;;;;26.05;28.28;101574.69;6325539;22;20033;-90
2022/11/08 08:27:13;;;;;;;35.15;14.85;;;;;;;26.70;28.11;101575.50;6262131;22;20007;-91
2022/11/08 08:29:41;;;;;;;39.78;19.55;;;;;;;27.36;26.92;101581.38;6282437;22;20018;-91
2022/11/08 08:32:10;;;;;;;37.25;17.55;;;;;;;27.62;26.03;101581.78;6305624;22;20012;-89
2022/11/08 08:34:37;;;;;;;29.65;16.20;;;;;;;28.09;25.35;101548.22;6279898;22;20012;-91
2022/11/08 08:37:04;;;;;;;29.05;15.73;;;;;;;28.79;24.49;101558.44;6284332;22;20014;-95
2022/11/08 08:39:32;;;;;;;35.45;17.05;;;;;;;29.36;24.91;101562.59;6259129;22;20006;-93
2022/11/08 08:42:03;;;;;;;28.60;15.30;;;;;;;29.63;24.32;101561.66;6284236;22;20099;-89
2022/11/08 08:44:30;;;;;;;27.65;17.02;;;;;;;29.45;24.71;101582.31;6314667;22;20003;-91
2022/11/08 08:46:56;;;;;;;30.75;16.50;;;;;;;29.95;24.19;101572.72;6285127;22;20003;-92
2022/11/08 08:49:25;;;;;;;25.92;15.80;;;;;;;30.25;23.33;101573.94;6264393;22;20018;-87
2022/11/08 08:51:53;;;;;;;30.58;15.43;;;;;;;29.79;23.45;101549.63;6316444;22;19999;-92
2022/11/08 08:54:26;;;;;;;29.52;15.55;;;;;;;29.15;24.27;101527.53;6319538;22;20003;-89
2022/11/08 08:57:02;;;;;;;13.95;7.90;;;;;;;28.92;23.76;101551.69;6279297;22;20071;-88
2022/11/08 08:59:28;;;;;;;16.02;10.15;;;;;;;29.74;23.38;101563.44;6257605;22;20340;-88
2022/11/08 09:01:55;;;;;;;25.35;10.57;;;;;;;29.51;23.62;101566.59;6279262;22;20178;-90
2022/11/08 09:04:21;;;;;;;21.15;11.00;;;;;;;29.73;23.07;101555.38;6317182;22;20015;-92
2022/11/08 09:06:48;;;;;;;15.82;9.18;;;;;;;29.41;23.24;101550.72;6309169;22;20030;-88
2022/11/08 09:09:38;;;;;;;13.50;8.45;;;;;;;29.48;23.18;101575.41;6338703;22;19999;-93
2022/11/08 09:12:05;;;;;;;17.67;7.55;;;;;;;29.84;22.72;101540.50;6337792;22;20341;-90
2022/11/08 09:14:32;;;;;;;13.82;6.80;;;;;;;30.29;22.27;101536.28;6286158;22;20007;-88
2022/11/08 09:17:00;;;;;;;12.35;6.15;;;;;;;29.84;22.42;101530.22;6308657;22;20059;-88
2022/11/08 09:19:27;;;;;;;15.07;6.57;;;;;;;29.43;23.02;101523.56;6311597;22;20025;-95
2022/11/08 09:21:57;;;;;;;12.85;6.95;;;;;;;29.57;22.92;101535.88;6308820;22;20575;-90
2022/11/08 09:24:26;;;;;;;22.17;6.72;;;;;;;29.23;23.64;101563.88;6313316;22;20097;-89
2022/11/08 09:26:55;;;;;;;9.90;5.47;;;;;;;29.50;23.05;101534.44;6313085;22;20010;-90
2022/11/08 09:29:26;;;;;;;13.48;6.40;;;;;;;29.98;23.08;101508.41;6332469;22;20080;-92
2022/11/08 09:32:04;;;;;;;11.77;5.78;;;;;;;30.34;22.55;101543.78;6311855;22;20011;-94
2022/11/08 09:34:30;;;;;;;11.93;5.50;;;;;;;28.19;25.01;101549.19;6336506;22;20026;-89
2022/11/08 09:36:56;;;;;;;11.93;5.47;;;;;;;28.31;24.84;101524.19;6260349;22;20014;-92
2022/11/08 09:39:23;;;;;;;13.35;5.30;;;;;;;28.16;24.84;101537.81;6261968;22;20014;-91
2022/11/08 09:42:21;;;;;;;9.52;5.65;;;;;;;27.61;25.52;101541.47;6293220;22;20013;-90
2022/11/08 09:45:05;;;;;;;12.60;5.45;;;;;;;28.97;24.67;101539.81;6354155;22;20074;-89
2022/11/08 09:47:41;;;;;;;10.23;5.25;;;;;;;28.88;24.73;101524.78;6341116;22;20118;-92
2022/11/08 09:50:21;;;;;;;;;;;;;;;28.62;24.67;101541.13;6310058;22;20010;-87
2022/11/08 09:52:50;;;;;;;9.05;4.43;;;;;;;29.45;24.35;101530.53;6311061;22;19910;-86
2022/11/08 09:55:28;;;;;;;26.20;5.65;;;;;;;30.20;23.14;101533.16;6282252;22;20007;-89
2022/11/08 09:58:05;;;;;;;11.27;5.03;;;;;;;29.58;23.66;101531.16;6280974;22;20174;-88
2022/11/08 10:00:34;;;;;;;9.38;4.13;;;;;;;29.12;23.61;101492.06;6308910;22;20478;-88
2022/11/08 10:03:00;;;;;;;10.90;5.20;;;;;;;28.46;24.32;101511.63;6312581;22;20570;-91
2022/11/08 10:05:26;;;;;;;9.90;4.30;;;;;;;29.01;23.91;101496.69;6281902;22;20023;-89
2022/11/08 10:08:07;;;;;;;8.30;4.13;;;;;;;27.95;25.41;101482.28;6310469;22;20069;-91
2022/11/08 10:10:56;;;;;;;7.15;4.00;;;;;;;28.63;24.79;101531.72;6285796;22;20070;-88
2022/11/08 10:13:30;;;;;;;9.07;3.80;;;;;;;28.01;24.88;101532.94;6309258;22;20009;-91
2022/11/08 10:16:11;;;;;;;9.77;4.53;;;;;;;28.07;25.77;101533.81;6308073;22;20095;-91
2022/11/08 10:18:51;;;;;;;9.23;4.55;;;;;;;28.12;25.61;101526.44;6338514;22;20106;-89
2022/11/08 10:21:37;;;;;;;7.57;4.22;;;;;;;27.55;26.38;101530.31;6339300;22;20007;-91
2022/11/08 10:24:39;;;;;;;8.20;3.70;;;;;;;28.14;26.07;101527.03;6339837;22;20029;-93
2022/11/08 10:27:14;;;;;;;11.05;4.30;;;;;;;28.53;25.60;101526.09;6312125;22;20373;-92
2022/11/08 10:29:55;;;;;;;11.52;4.57;;;;;;;28.73;25.37;101509.72;6315267;22;20049;-89
2022/11/08 10:32:23;;;;;;;9.20;3.75;;;;;;;28.03;25.54;101527.16;6313743;22;20009;-91
2022/11/08 10:35:21;;;;;;;7.55;3.25;;;;;;;27.73;26.58;101523.69;6295457;22;20085;-89
2022/11/08 10:37:50;;;;;;;5.15;3.45;;;;;;;27.66;26.35;101523.03;6310542;22;20011;-89
2022/11/08 10:40:56;;;;;;;7.57;3.55;;;;;;;28.03;25.99;101521.63;6311313;22;20014;-89
2022/11/08 10:43:45;;;;;;;8.38;3.85;;;;;;;28.29;25.63;101518.06;6316142;22;20010;-91
2022/11/08 10:46:31;;;;;;;7.63;3.50;;;;;;;27.29;26.64;101520.81;6286800;22;20405;-90
2022/11/08 10:49:01;;;;;;;5.15;3.42;;;;;;;27.09;26.23;101506.66;6318266;22;20006;-91
2022/11/08 10:51:29;;;;;;;5.32;3.10;;;;;;;26.55;27.20;101518.16;6284679;22;20003;-89
2022/11/08 10:53:56;;;;;;;7.13;3.28;;;;;;;26.88;27.11;101505.50;6350838;22;20026;-89
2022/11/08 10:56:23;;;;;;;7.93;3.53;;;;;;;26.90;27.21;101517.94;6336014;22;20018;-87
2022/11/08 10:58:50;;;;;;;7.57;3.30;;;;;;;27.26;26.90;101509.47;6335958;22;20046;-84
2022/11/08 11:01:20;;;;;;;10.02;3.55;;;;;;;26.95;27.50;101490.44;6319044;22;20026;-85
2022/11/08 11:03:46;;;;;;;7.03;3.60;;;;;;;27.13;26.77;101503.13;6314906;22;20124;-86
2022/11/08 11:06:29;;;;;;;6.95;3.50;;;;;;;25.84;28.87;101504.50;6310301;22;20023;-88
2022/11/08 11:09:21;;;;;;;13.95;3.50;;;;;;;26.67;27.98;101510.66;6310323;22;20094;-87
2022/11/08 11:11:59;;;;;;;9.70;3.50;;;;;;;27.11;27.02;101494.28;6338104;22;20148;-89
2022/11/08 11:14:24;;;;;;;7.22;3.60;;;;;;;27.22;27.10;101500.81;6286323;22;20038;-89
2022/11/08 11:16:56;;;;;;;5.53;3.25;;;;;;;27.36;27.31;101498.56;6311001;22;20003;-90
2022/11/08 11:19:24;;;;;;;6.18;3.40;;;;;;;27.57;27.08;101472.91;6308170;22;20014;-88
2022/11/08 11:22:06;;;;;;;7.88;3.13;;;;;;;26.87;27.74;101492.78;6325389;22;19986;-89
2022/11/08 11:24:34;;;;;;;6.10;3.50;;;;;;;26.98;27.71;101486.34;6273603;22;20129;-89
2022/11/08 11:27:02;;;;;;;7.38;3.50;;;;;;;27.02;27.84;101481.16;6280639;22;20007;-87
2022/11/08 11:29:30;;;;;;;8.65;3.90;;;;;;;25.54;29.52;101490.91;6309007;22;20003;-86
2022/11/08 11:31:55;;;;;;;5.43;3.63;;;;;;;25.88;29.66;101469.94;6283340;22;20011;-85
2022/11/08 11:34:44;;;;;;;7.90;3.47;;;;;;;25.52;29.99;101476.56;6282477;22;20017;-89
2022/11/08 11:37:09;;;;;;;7.43;3.75;;;;;;;25.57;30.22;101489.59;6284836;22;20003;-88
2022/11/08 11:40:05;;;;;;;7.40;3.55;;;;;;;24.50;31.22;101466.59;6337871;22;20003;-89
2022/11/08 11:42:37;;;;;;;7.97;3.45;;;;;;;25.00;30.81;101479.13;6311024;22;20397;-88
2022/11/08 11:45:11;;;;;;;7.82;3.90;;;;;;;24.28;32.09;101476.41;6309947;22;20351;-88
2022/11/08 11:47:46;;;;;;;5.45;3.25;;;;;;;23.34;33.76;101479.34;6311739;22;20006;-86
2022/11/08 11:50:37;;;;;;;6.30;3.67;;;;;;;22.38;35.56;101492.28;6337587;22;20381;-88
2022/11/08 11:53:12;;;;;;;9.50;3.75;;;;;;;21.80;36.91;101457.56;6321975;22;20003;-89
2022/11/08 11:55:53;;;;;;;8.48;3.80;;;;;;;21.80;36.96;101482.19;6324780;22;20010;-87
2022/11/08 11:58:45;;;;;;;7.25;3.63;;;;;;;21.27;37.22;101471.34;6312498;22;20003;-87
2022/11/08 12:01:30;;;;;;;7.25;3.70;;;;;;;20.46;38.71;101491.41;6313230;22;20095;-88
2022/11/08 12:04:17;;;;;;;7.25;3.78;;;;;;;20.38;39.88;101495.19;6338414;22;20028;-89
2022/11/08 12:06:56;;;;;;;8.10;3.80;;;;;;;20.48;39.35;101491.22;6336582;22;20007;-89
2022/11/08 12:09:59;;;;;;;10.73;4.50;;;;;;;20.41;39.55;101494.75;6335890;22;20013;-90
2022/11/08 12:13:04;;;;;;;9.90;3.53;;;;;;;20.27;39.05;101495.78;6335649;22;19995;-90
2022/11/08 12:15:40;;;;;;;5.90;3.83;;;;;;;20.18;39.71;101497.00;6307198;22;20010;-92
2022/11/08 12:18:43;;;;;;;6.35;3.72;;;;;;;19.50;41.20;101492.25;6336145;22;20118;-92
2022/11/08 12:21:26;;;;;;;7.30;4.15;;;;;;;18.83;42.55;101455.44;6322557;22;20011;-94
2022/11/08 12:24:17;;;;;;;6.35;3.80;;;;;;;18.71;43.89;101476.88;6285771;22;20007;-93
2022/11/08 12:27:31;;;;;;;8.77;4.13;;;;;;;18.76;43.78;101471.72;6338128;22;20478;-92
2022/11/08 12:30:42;;;;;;;9.52;3.80;;;;;;;18.57;44.07;101483.25;6329949;22;20003;-93
2022/11/08 12:33:34;;;;;;;8.02;3.67;;;;;;;18.33;44.51;101479.84;6335035;22;20011;-88
2022/11/08 12:36:07;;;;;;;6.47;4.00;;;;;;;18.09;45.37;101493.78;6285045;22;20005;-90
2022/11/08 12:38:43;;;;;;;7.55;3.72;;;;;;;17.89;45.66;101464.44;6334124;22;20010;-89
2022/11/08 12:41:20;;;;;;;7.38;3.50;;;;;;;18.02;45.17;101490.13;6281784;22;20011;-91
2022/11/08 12:43:50;;;;;;;7.13;3.97;;;;;;;18.30;44.62;101490.25;6259952;22;20018;-90
2022/11/08 12:46:18;;;;;;;9.85;4.30;;;;;;;18.21;44.36;101448.69;6311179;22;20007;-90
2022/11/08 12:49:21;;;;;;;12.60;4.57;;;;;;;18.63;44.18;101487.88;6283478;22;20018;-89
2022/11/08 12:52:52;;;;;;;8.48;4.30;;;;;;;17.46;46.81;101483.25;6337107;22;20074;-90
2022/11/08 12:55:27;;;;;;;9.98;3.70;;;;;;;17.37;46.67;101450.91;6128337;23;20013;-91
2022/11/08 12:57:58;;;;;;;7.47;3.50;;;;;;;17.53;46.17;101477.94;6271368;22;20026;-91
2022/11/08 13:00:36;;;;;;;8.73;4.03;;;;;;;17.24;46.73;101436.13;6297786;22;19998;-95
2022/11/08 13:06:46;;;;;;;7.43;3.90;;;;;;;17.35;47.95;101478.31;6343150;22;20094;-91
2022/11/08 13:13:14;;;;;;;8.40;3.85;;;;;;;17.57;47.58;101495.56;6344424;22;20003;-94
2022/11/08 13:19:39;;;;;;;7.97;3.97;;;;;;;17.55;46.16;101454.13;6342750;22;20037;-94
2022/11/08 13:22:30;;;;;;;;;;;;;;;17.57;46.69;101500.16;6333658;22;20011;-91
2022/11/08 13:25:31;;;;;;;7.38;3.80;;;;;;;16.71;48.10;101464.25;6311918;22;19959;-90
2022/11/08 13:31:36;;;;;;;8.05;4.10;;;;;;;16.63;49.34;101504.00;6341986;22;20033;-91
2022/11/08 13:37:36;;;;;;;8.00;4.28;;;;;;;16.09;50.57;101467.88;6348545;22;20094;-90
2022/11/08 13:40:22;;;;;;;9.55;4.45;;;;;;;16.06;51.07;101498.06;6303085;22;20014;-90
2022/11/08 13:43:04;;;;;;;12.00;4.28;;;;;;;15.65;51.71;101450.25;6359875;22;20010;-88
2022/11/08 13:45:39;;;;;;;10.68;4.50;;;;;;;15.91;50.70;101449.16;6331981;22;20006;-93
2022/11/08 13:58:04;;;;;;;9.50;4.15;;;;;;;15.43;53.58;101478.94;6313801;22;20023;-92
2022/11/08 14:00:45;;;;;;;9.15;4.50;;;;;;;15.39;53.81;101467.59;6281663;22;20011;-93
2022/11/08 14:07:05;;;;;;;9.60;4.15;;;;;;;15.63;53.86;101506.47;6314164;22;20022;-93
2022/11/08 14:09:52;;;;;;;9.13;4.07;;;;;;;15.02;54.65;101459.19;6258972;22;20062;-91
2022/11/08 14:12:55;;;;;;;6.88;4.00;;;;;;;15.27;55.22;101501.47;6321468;22;20090;-91
2022/11/08 14:15:26;;;;;;;11.23;4.70;;;;;;;15.30;55.11;101501.13;6312484;22;19999;-91
2022/11/08 14:18:44;;;;;;;9.10;4.13;;;;;;;15.02;55.60;101476.28;6309979;22;20014;-93
2022/11/08 14:21:31;;;;;;;6.35;4.07;;;;;;;14.93;56.07;101475.44;6313260;22;20352;-91
2022/11/08 14:24:09;;;;;;;8.20;4.95;;;;;;;14.78;56.46;101469.00;6283605;22;20011;-93
2022/11/08 14:26:46;;;;;;;10.13;4.80;;;;;;;14.65;56.38;101464.09;6318240;22;19988;-90
2022/11/08 14:29:48;;;;;;;8.63;4.88;;;;;;;14.98;56.61;101507.41;6279315;22;20011;-92
2022/11/08 14:36:18;;;;;;;12.33;5.00;;;;;;;14.75;56.94;101501.84;6332474;22;20003;-91
2022/11/08 14:39:18;;;;;;;10.60;5.40;;;;;;;14.38;57.42;101464.38;6279734;22;20054;-95
2022/11/08 14:44:35;;;;;;;9.90;5.55;;;;;;;14.20;57.89;101445.56;6315629;22;20023;-94
2022/11/08 14:50:37;;;;;;;13.50;5.05;;;;;;;14.23;58.99;101483.94;6332373;22;20050;-91
2022/11/08 14:53:49;;;;;;;9.13;5.80;;;;;;;14.34;58.93;101507.13;6310418;22;20006;-94
2022/11/08 14:56:45;;;;;;;11.82;6.20;;;;;;;13.90;59.26;101447.84;6335978;22;20002;-92
2022/11/08 14:59:18;;;;;;;14.60;6.38;;;;;;;14.23;59.11;101493.91;6309249;22;20011;-94
2022/11/08 15:02:01;;;;;;;16.40;6.43;;;;;;;14.00;59.09;101464.78;6303996;22;20015;-93
2022/11/08 15:04:30;;;;;;;22.20;8.40;;;;;;;14.09;59.38;101476.47;6326202;22;20039;-94
2022/11/08 15:06:57;;;;;;;23.60;8.98;;;;;;;14.00;59.61;101478.31;6307211;22;20010;-93
2022/11/08 15:09:33;;;;;;;17.33;7.68;;;;;;;13.99;59.63;101475.75;6330094;22;19991;-94
2022/11/08 15:12:32;;;;;;;14.35;6.30;;;;;;;14.01;59.68;101496.22;6333726;22;20007;-95
2022/11/08 15:15:02;;;;;;;25.30;10.18;;;;;;;13.88;60.04;101482.28;6337613;22;20020;-91
2022/11/08 15:17:33;;;;;;;28.58;10.77;;;;;;;14.04;60.51;101524.78;6331897;22;19999;-93
2022/11/08 15:20:13;;;;;;;15.63;8.13;;;;;;;13.72;60.54;101475.00;6309064;22;20036;-92
2022/11/08 15:22:56;;;;;;;22.17;8.95;;;;;;;13.67;60.79;101486.28;6334328;22;20007;-93
2022/11/08 15:25:32;;;;;;;14.85;6.80;;;;;;;13.80;61.12;101507.44;6266187;22;20014;-92
2022/11/08 15:28:20;;;;;;;13.20;6.03;;;;;;;13.79;60.54;101499.47;6265949;22;20435;-92
2022/11/08 15:30:46;;;;;;;16.60;6.57;;;;;;;13.50;60.87;101468.25;6301374;22;20003;-94
2022/11/08 15:33:49;;;;;;;14.55;6.80;;;;;;;13.84;60.91;101527.75;6289841;22;20010;-95
2022/11/08 15:36:19;;;;;;;27.45;7.20;;;;;;;13.50;61.40;101490.72;6276261;22;20017;-92
2022/11/08 15:39:41;;;;;;;13.13;7.20;;;;;;;13.52;61.65;101502.22;6308050;22;20007;-94
2022/11/08 15:42:28;;;;;;;18.40;7.20;;;;;;;13.33;62.03;101474.59;6325713;22;20105;-92
2022/11/08 15:45:24;;;;;;;15.95;7.38;;;;;;;13.39;61.79;101495.53;6266915;22;20018;-92
2022/11/08 15:48:01;;;;;;;15.77;8.30;;;;;;;13.59;62.07;101531.31;6273399;22;20055;-91